sensor_id;sensor_type;location;lat;lon;timestamp;temperature;humidity
60234;DHT22;49514;43.538;-5.708;2023-04-02T00:01:50;11.60;99.90
60234;DHT22;49514;43.538;-5.708;2023-04-02T00:04:21;11.60;99.90
60234;DHT22;49514;43.538;-5.708;2023-04-02T00:06:51;11.60;99.90
60234;DHT22;49514;43.538;-5.708;2023-04-02T00:09:23;11.60;99.90
60234;DHT22;49514;43.538;-5.708;2023-04-02T00:11:51;11.60;99.90
60234;DHT22;49514;43.538;-5.708;2023-04-02T00:14:30;11.60;99.90
60234;DHT22;49514;43.538;-5.708;2023-04-02T00:17:00;11.70;99.90
60234;DHT22;49514;43.538;-5.708;2023-04-02T00:20:10;11.70;99.90
60234;DHT22;49514;43.538;-5.708;2023-04-02T00:22:31;11.70;99.90
60234;DHT22;49514;43.538;-5.708;2023-04-02T00:25:02;11.80;99.90
60234;DHT22;49514;43.538;-5.708;2023-04-02T00:27:33;11.80;99.90
60234;DHT22;49514;43.538;-5.708;2023-04-02T00:30:01;11.80;99.90
60234;DHT22;49514;43.538;-5.708;2023-04-02T00:32:33;11.70;99.90
60234;DHT22;49514;43.538;-5.708;2023-04-02T00:35:02;11.70;99.90
60234;DHT22;49514;43.538;-5.708;2023-04-02T00:37:31;11.60;99.90
60234;DHT22;49514;43.538;-5.708;2023-04-02T00:42:37;11.50;99.90
60234;DHT22;49514;43.538;-5.708;2023-04-02T00:45:13;11.50;99.90
60234;DHT22;49514;43.538;-5.708;2023-04-02T00:47:44;11.40;99.90
60234;DHT22;49514;43.538;-5.708;2023-04-02T00:52:37;11.30;99.90
60234;DHT22;49514;43.538;-5.708;2023-04-02T00:57:51;11.10;99.90
60234;DHT22;49514;43.538;-5.708;2023-04-02T01:05:38;11.00;99.90
60234;DHT22;49514;43.538;-5.708;2023-04-02T01:11:35;11.00;99.90
60234;DHT22;49514;43.538;-5.708;2023-04-02T01:19:29;10.80;99.90
60234;DHT22;49514;43.538;-5.708;2023-04-02T01:22:53;10.80;99.90
60234;DHT22;49514;43.538;-5.708;2023-04-02T01:25:18;10.70;99.90
60234;DHT22;49514;43.538;-5.708;2023-04-02T01:30:35;10.70;99.90
60234;DHT22;49514;43.538;-5.708;2023-04-02T01:33:03;10.60;99.90
60234;DHT22;49514;43.538;-5.708;2023-04-02T01:35:34;10.60;99.90
60234;DHT22;49514;43.538;-5.708;2023-04-02T01:38:11;10.50;99.90
60234;DHT22;49514;43.538;-5.708;2023-04-02T01:40:52;10.50;99.90
60234;DHT22;49514;43.538;-5.708;2023-04-02T01:45:50;10.50;99.90
60234;DHT22;49514;43.538;-5.708;2023-04-02T01:48:21;10.40;99.90
60234;DHT22;49514;43.538;-5.708;2023-04-02T01:50:51;10.30;99.90
60234;DHT22;49514;43.538;-5.708;2023-04-02T01:53:22;10.30;99.90
60234;DHT22;49514;43.538;-5.708;2023-04-02T01:55:55;10.30;99.90
60234;DHT22;49514;43.538;-5.708;2023-04-02T01:58:25;10.30;99.90
60234;DHT22;49514;43.538;-5.708;2023-04-02T02:01:03;10.20;99.90
60234;DHT22;49514;43.538;-5.708;2023-04-02T02:03:37;10.20;99.90
60234;DHT22;49514;43.538;-5.708;2023-04-02T02:06:05;10.20;99.90
60234;DHT22;49514;43.538;-5.708;2023-04-02T02:11:16;10.20;99.90
60234;DHT22;49514;43.538;-5.708;2023-04-02T02:14:00;10.20;99.90
60234;DHT22;49514;43.538;-5.708;2023-04-02T02:16:28;10.20;99.90
60234;DHT22;49514;43.538;-5.708;2023-04-02T02:19:00;10.20;99.90
60234;DHT22;49514;43.538;-5.708;2023-04-02T02:24:01;10.30;99.90
60234;DHT22;49514;43.538;-5.708;2023-04-02T02:26:32;10.30;99.90
60234;DHT22;49514;43.538;-5.708;2023-04-02T02:29:02;10.30;99.90
60234;DHT22;49514;43.538;-5.708;2023-04-02T02:31:33;10.20;99.90
60234;DHT22;49514;43.538;-5.708;2023-04-02T02:34:07;10.20;99.90
60234;DHT22;49514;43.538;-5.708;2023-04-02T02:36:46;10.20;99.90
60234;DHT22;49514;43.538;-5.708;2023-04-02T02:41:59;10.10;99.90
60234;DHT22;49514;43.538;-5.708;2023-04-02T02:44:30;10.10;99.90
60234;DHT22;49514;43.538;-5.708;2023-04-02T02:47:13;10.10;99.90
60234;DHT22;49514;43.538;-5.708;2023-04-02T02:49:48;10.20;99.90
60234;DHT22;49514;43.538;-5.708;2023-04-02T02:52:31;10.20;99.90
60234;DHT22;49514;43.538;-5.708;2023-04-02T02:55:12;10.30;99.90
60234;DHT22;49514;43.538;-5.708;2023-04-02T02:57:58;10.30;99.90
60234;DHT22;49514;43.538;-5.708;2023-04-02T03:00:37;10.30;99.90
60234;DHT22;49514;43.538;-5.708;2023-04-02T03:03:08;10.40;99.90
60234;DHT22;49514;43.538;-5.708;2023-04-02T03:05:38;10.40;99.90
60234;DHT22;49514;43.538;-5.708;2023-04-02T03:08:18;10.40;99.90
60234;DHT22;49514;43.538;-5.708;2023-04-02T03:11:11;10.40;99.90
60234;DHT22;49514;43.538;-5.708;2023-04-02T03:13:44;10.40;99.90
60234;DHT22;49514;43.538;-5.708;2023-04-02T03:16:27;10.40;99.90
60234;DHT22;49514;43.538;-5.708;2023-04-02T03:19:03;10.40;99.90
60234;DHT22;49514;43.538;-5.708;2023-04-02T03:21:42;10.40;99.90
60234;DHT22;49514;43.538;-5.708;2023-04-02T03:26:55;10.40;99.90
60234;DHT22;49514;43.538;-5.708;2023-04-02T03:29:29;10.40;99.90
60234;DHT22;49514;43.538;-5.708;2023-04-02T03:32:11;10.40;99.90
60234;DHT22;49514;43.538;-5.708;2023-04-02T03:34:51;10.40;99.90
60234;DHT22;49514;43.538;-5.708;2023-04-02T03:37:25;10.40;99.90
60234;DHT22;49514;43.538;-5.708;2023-04-02T03:40:03;10.40;99.90
60234;DHT22;49514;43.538;-5.708;2023-04-02T03:43:02;10.40;99.90
60234;DHT22;49514;43.538;-5.708;2023-04-02T03:45:40;10.40;99.90
60234;DHT22;49514;43.538;-5.708;2023-04-02T03:48:13;10.30;99.90
60234;DHT22;49514;43.538;-5.708;2023-04-02T03:50:59;10.20;99.90
60234;DHT22;49514;43.538;-5.708;2023-04-02T03:53:28;10.20;99.90
60234;DHT22;49514;43.538;-5.708;2023-04-02T03:55:58;10.10;99.90
60234;DHT22;49514;43.538;-5.708;2023-04-02T03:58:44;10.00;99.90
60234;DHT22;49514;43.538;-5.708;2023-04-02T04:01:22;10.00;99.90
60234;DHT22;49514;43.538;-5.708;2023-04-02T04:03:54;10.00;99.90
60234;DHT22;49514;43.538;-5.708;2023-04-02T04:06:28;9.90;99.90
60234;DHT22;49514;43.538;-5.708;2023-04-02T04:12:20;9.80;99.90
60234;DHT22;49514;43.538;-5.708;2023-04-02T04:14:56;9.80;99.90
60234;DHT22;49514;43.538;-5.708;2023-04-02T04:17:31;9.70;99.90
60234;DHT22;49514;43.538;-5.708;2023-04-02T04:26:05;9.50;99.90
60234;DHT22;49514;43.538;-5.708;2023-04-02T04:31:46;9.40;99.90
60234;DHT22;49514;43.538;-5.708;2023-04-02T04:34:31;9.40;99.90
60234;DHT22;49514;43.538;-5.708;2023-04-02T04:37:05;9.40;99.90
60234;DHT22;49514;43.538;-5.708;2023-04-02T04:39:45;9.50;99.90
60234;DHT22;49514;43.538;-5.708;2023-04-02T04:42:28;9.50;99.90
60234;DHT22;49514;43.538;-5.708;2023-04-02T04:45:08;9.60;99.90
60234;DHT22;49514;43.538;-5.708;2023-04-02T04:47:42;9.60;99.90
60234;DHT22;49514;43.538;-5.708;2023-04-02T04:50:18;9.60;99.90
60234;DHT22;49514;43.538;-5.708;2023-04-02T04:52:48;9.60;99.90
60234;DHT22;49514;43.538;-5.708;2023-04-02T04:55:26;9.70;99.90
60234;DHT22;49514;43.538;-5.708;2023-04-02T04:58:17;9.70;99.90
60234;DHT22;49514;43.538;-5.708;2023-04-02T05:05:48;9.70;99.90
60234;DHT22;49514;43.538;-5.708;2023-04-02T05:08:26;9.60;99.90
60234;DHT22;49514;43.538;-5.708;2023-04-02T05:11:04;9.60;99.90
60234;DHT22;49514;43.538;-5.708;2023-04-02T05:19:05;9.60;99.90
60234;DHT22;49514;43.538;-5.708;2023-04-02T05:24:53;9.60;99.90
60234;DHT22;49514;43.538;-5.708;2023-04-02T05:27:43;9.70;99.90
60234;DHT22;49514;43.538;-5.708;2023-04-02T05:32:46;9.70;99.90
60234;DHT22;49514;43.538;-5.708;2023-04-02T05:35:17;9.70;99.90
60234;DHT22;49514;43.538;-5.708;2023-04-02T05:37:45;9.70;99.90
60234;DHT22;49514;43.538;-5.708;2023-04-02T05:40:29;9.80;99.90
60234;DHT22;49514;43.538;-5.708;2023-04-02T05:43:01;9.80;99.90
60234;DHT22;49514;43.538;-5.708;2023-04-02T05:45:37;9.80;99.90
60234;DHT22;49514;43.538;-5.708;2023-04-02T05:48:29;9.80;99.90
60234;DHT22;49514;43.538;-5.708;2023-04-02T05:50:59;9.80;99.90
60234;DHT22;49514;43.538;-5.708;2023-04-02T05:53:34;9.80;99.90
60234;DHT22;49514;43.538;-5.708;2023-04-02T05:56:19;9.80;99.90
60234;DHT22;49514;43.538;-5.708;2023-04-02T05:59:15;9.90;99.90
60234;DHT22;49514;43.538;-5.708;2023-04-02T06:02:01;9.90;99.90
60234;DHT22;49514;43.538;-5.708;2023-04-02T06:07:25;9.90;99.90
60234;DHT22;49514;43.538;-5.708;2023-04-02T06:15:20;9.90;99.90
60234;DHT22;49514;43.538;-5.708;2023-04-02T06:17:51;9.90;99.90
60234;DHT22;49514;43.538;-5.708;2023-04-02T06:20:19;10.00;99.90
60234;DHT22;49514;43.538;-5.708;2023-04-02T06:22:52;10.00;99.90
60234;DHT22;49514;43.538;-5.708;2023-04-02T06:25:31;10.00;99.90
60234;DHT22;49514;43.538;-5.708;2023-04-02T06:28:03;10.00;99.90
60234;DHT22;49514;43.538;-5.708;2023-04-02T06:30:34;10.00;99.90
60234;DHT22;49514;43.538;-5.708;2023-04-02T06:33:04;10.00;99.90
60234;DHT22;49514;43.538;-5.708;2023-04-02T06:35:35;10.00;99.90
60234;DHT22;49514;43.538;-5.708;2023-04-02T06:38:05;10.00;99.90
60234;DHT22;49514;43.538;-5.708;2023-04-02T06:40:53;10.10;99.90
60234;DHT22;49514;43.538;-5.708;2023-04-02T06:46:47;10.10;99.90
60234;DHT22;49514;43.538;-5.708;2023-04-02T06:49:22;10.20;99.90
60234;DHT22;49514;43.538;-5.708;2023-04-02T06:51:57;10.20;99.90
60234;DHT22;49514;43.538;-5.708;2023-04-02T06:54:26;10.30;99.90
60234;DHT22;49514;43.538;-5.708;2023-04-02T06:56:58;10.40;99.90
60234;DHT22;49514;43.538;-5.708;2023-04-02T06:59:32;10.40;99.90
60234;DHT22;49514;43.538;-5.708;2023-04-02T07:02:04;10.40;99.90
60234;DHT22;49514;43.538;-5.708;2023-04-02T07:04:41;10.40;99.90
60234;DHT22;49514;43.538;-5.708;2023-04-02T07:07:09;10.40;99.90
60234;DHT22;49514;43.538;-5.708;2023-04-02T07:09:39;10.40;99.90
60234;DHT22;49514;43.538;-5.708;2023-04-02T07:12:13;10.40;99.90
60234;DHT22;49514;43.538;-5.708;2023-04-02T07:14:41;10.40;99.90
60234;DHT22;49514;43.538;-5.708;2023-04-02T07:17:17;10.40;99.90
60234;DHT22;49514;43.538;-5.708;2023-04-02T07:19:45;10.40;99.90
60234;DHT22;49514;43.538;-5.708;2023-04-02T07:22:18;10.30;99.90
60234;DHT22;49514;43.538;-5.708;2023-04-02T07:24:48;10.40;99.90
60234;DHT22;49514;43.538;-5.708;2023-04-02T07:27:15;10.40;99.90
60234;DHT22;49514;43.538;-5.708;2023-04-02T07:29:42;10.40;99.90
60234;DHT22;49514;43.538;-5.708;2023-04-02T07:32:12;10.50;99.90
60234;DHT22;49514;43.538;-5.708;2023-04-02T07:34:40;10.60;99.90
60234;DHT22;49514;43.538;-5.708;2023-04-02T07:37:12;10.70;99.90
60234;DHT22;49514;43.538;-5.708;2023-04-02T07:39:39;10.70;99.90
60234;DHT22;49514;43.538;-5.708;2023-04-02T07:42:06;10.70;99.90
60234;DHT22;49514;43.538;-5.708;2023-04-02T07:44:33;10.80;99.90
60234;DHT22;49514;43.538;-5.708;2023-04-02T07:47:00;10.90;99.90
60234;DHT22;49514;43.538;-5.708;2023-04-02T07:49:27;10.90;99.90
60234;DHT22;49514;43.538;-5.708;2023-04-02T07:51:54;11.00;99.90
60234;DHT22;49514;43.538;-5.708;2023-04-02T07:54:21;11.10;99.90
60234;DHT22;49514;43.538;-5.708;2023-04-02T07:56:48;11.30;99.90
60234;DHT22;49514;43.538;-5.708;2023-04-02T07:59:16;11.40;99.90
60234;DHT22;49514;43.538;-5.708;2023-04-02T08:01:42;11.50;99.90
60234;DHT22;49514;43.538;-5.708;2023-04-02T08:04:17;11.60;99.90
60234;DHT22;49514;43.538;-5.708;2023-04-02T08:06:45;11.70;99.90
60234;DHT22;49514;43.538;-5.708;2023-04-02T08:09:14;11.90;99.90
60234;DHT22;49514;43.538;-5.708;2023-04-02T08:11:42;12.10;99.90
60234;DHT22;49514;43.538;-5.708;2023-04-02T08:14:10;12.10;99.90
60234;DHT22;49514;43.538;-5.708;2023-04-02T08:16:49;12.30;99.90
60234;DHT22;49514;43.538;-5.708;2023-04-02T08:19:18;12.30;99.90
60234;DHT22;49514;43.538;-5.708;2023-04-02T08:21:46;12.40;99.90
60234;DHT22;49514;43.538;-5.708;2023-04-02T08:24:16;12.50;99.90
60234;DHT22;49514;43.538;-5.708;2023-04-02T08:26:47;12.60;99.90
60234;DHT22;49514;43.538;-5.708;2023-04-02T08:29:15;12.70;99.90
60234;DHT22;49514;43.538;-5.708;2023-04-02T08:31:43;12.80;99.90
60234;DHT22;49514;43.538;-5.708;2023-04-02T08:34:11;12.80;99.90
60234;DHT22;49514;43.538;-5.708;2023-04-02T08:36:39;12.80;99.90
60234;DHT22;49514;43.538;-5.708;2023-04-02T08:39:08;12.90;99.90
60234;DHT22;49514;43.538;-5.708;2023-04-02T08:41:59;13.00;99.90
60234;DHT22;49514;43.538;-5.708;2023-04-02T08:47:18;13.20;99.90
60234;DHT22;49514;43.538;-5.708;2023-04-02T08:49:57;13.30;99.90
60234;DHT22;49514;43.538;-5.708;2023-04-02T08:52:36;13.40;99.90
60234;DHT22;49514;43.538;-5.708;2023-04-02T08:55:10;13.40;99.90
60234;DHT22;49514;43.538;-5.708;2023-04-02T08:57:51;13.40;99.90
60234;DHT22;49514;43.538;-5.708;2023-04-02T09:00:39;13.50;99.90
60234;DHT22;49514;43.538;-5.708;2023-04-02T09:03:17;13.70;99.90
60234;DHT22;49514;43.538;-5.708;2023-04-02T09:05:46;13.80;99.90
60234;DHT22;49514;43.538;-5.708;2023-04-02T09:08:23;14.00;99.90
60234;DHT22;49514;43.538;-5.708;2023-04-02T09:11:01;14.10;99.90
60234;DHT22;49514;43.538;-5.708;2023-04-02T09:13:30;14.20;99.90
60234;DHT22;49514;43.538;-5.708;2023-04-02T09:18:35;14.60;99.90
60234;DHT22;49514;43.538;-5.708;2023-04-02T09:21:30;14.70;99.90
60234;DHT22;49514;43.538;-5.708;2023-04-02T09:24:00;14.80;99.90
60234;DHT22;49514;43.538;-5.708;2023-04-02T09:26:30;14.80;99.90
60234;DHT22;49514;43.538;-5.708;2023-04-02T09:31:41;15.00;99.90
60234;DHT22;49514;43.538;-5.708;2023-04-02T09:34:35;15.10;99.90
60234;DHT22;49514;43.538;-5.708;2023-04-02T09:37:17;15.00;99.90
60234;DHT22;49514;43.538;-5.708;2023-04-02T09:39:45;15.00;99.90
60234;DHT22;49514;43.538;-5.708;2023-04-02T09:42:33;15.10;99.90
60234;DHT22;49514;43.538;-5.708;2023-04-02T09:47:39;15.40;99.90
60234;DHT22;49514;43.538;-5.708;2023-04-02T09:50:40;15.50;99.90
60234;DHT22;49514;43.538;-5.708;2023-04-02T09:53:15;15.50;99.90
60234;DHT22;49514;43.538;-5.708;2023-04-02T09:55:42;15.40;99.90
60234;DHT22;49514;43.538;-5.708;2023-04-02T10:00:38;15.00;99.90
60234;DHT22;49514;43.538;-5.708;2023-04-02T10:03:09;14.80;99.90
60234;DHT22;49514;43.538;-5.708;2023-04-02T10:05:43;14.80;99.90
60234;DHT22;49514;43.538;-5.708;2023-04-02T10:08:17;14.70;99.90
60234;DHT22;49514;43.538;-5.708;2023-04-02T10:10:46;14.60;99.90
60234;DHT22;49514;43.538;-5.708;2023-04-02T10:21:04;14.90;99.90
60234;DHT22;49514;43.538;-5.708;2023-04-02T10:23:31;14.90;99.90
60234;DHT22;49514;43.538;-5.708;2023-04-02T10:26:15;14.90;99.90
60234;DHT22;49514;43.538;-5.708;2023-04-02T10:28:53;14.90;99.90
60234;DHT22;49514;43.538;-5.708;2023-04-02T10:31:23;14.90;99.90
60234;DHT22;49514;43.538;-5.708;2023-04-02T10:33:57;15.00;99.90
60234;DHT22;49514;43.538;-5.708;2023-04-02T10:36:28;15.20;99.90
60234;DHT22;49514;43.538;-5.708;2023-04-02T10:41:27;15.30;99.90
60234;DHT22;49514;43.538;-5.708;2023-04-02T10:46:37;15.30;99.90
60234;DHT22;49514;43.538;-5.708;2023-04-02T10:54:24;16.20;99.90
60234;DHT22;49514;43.538;-5.708;2023-04-02T10:56:57;16.60;99.90
60234;DHT22;49514;43.538;-5.708;2023-04-02T10:59:26;16.90;99.90
60234;DHT22;49514;43.538;-5.708;2023-04-02T11:01:55;16.90;99.90
60234;DHT22;49514;43.538;-5.708;2023-04-02T11:04:34;17.10;99.90
60234;DHT22;49514;43.538;-5.708;2023-04-02T11:07:06;16.90;99.90
60234;DHT22;49514;43.538;-5.708;2023-04-02T11:09:36;16.40;99.90
60234;DHT22;49514;43.538;-5.708;2023-04-02T11:12:04;16.00;99.90
60234;DHT22;49514;43.538;-5.708;2023-04-02T11:14:31;15.90;99.90
60234;DHT22;49514;43.538;-5.708;2023-04-02T11:16:59;15.70;99.90
60234;DHT22;49514;43.538;-5.708;2023-04-02T11:19:28;15.50;99.90
60234;DHT22;49514;43.538;-5.708;2023-04-02T11:27:06;15.50;99.90
60234;DHT22;49514;43.538;-5.708;2023-04-02T11:29:33;15.60;99.90
60234;DHT22;49514;43.538;-5.708;2023-04-02T11:39:59;16.00;99.90
60234;DHT22;49514;43.538;-5.708;2023-04-02T11:44:53;16.10;99.90
60234;DHT22;49514;43.538;-5.708;2023-04-02T11:52:23;16.20;99.90
60234;DHT22;49514;43.538;-5.708;2023-04-02T11:54:55;16.40;99.90
60234;DHT22;49514;43.538;-5.708;2023-04-02T12:05:31;17.80;99.90
60234;DHT22;49514;43.538;-5.708;2023-04-02T12:10:31;18.20;99.90
60234;DHT22;49514;43.538;-5.708;2023-04-02T12:12:59;18.50;99.90
60234;DHT22;49514;43.538;-5.708;2023-04-02T12:15:42;18.80;99.90
60234;DHT22;49514;43.538;-5.708;2023-04-02T12:20:38;19.30;99.90
60234;DHT22;49514;43.538;-5.708;2023-04-02T12:23:05;19.50;99.90
60234;DHT22;49514;43.538;-5.708;2023-04-02T12:25:32;19.70;99.90
60234;DHT22;49514;43.538;-5.708;2023-04-02T12:28:06;19.60;99.90
60234;DHT22;49514;43.538;-5.708;2023-04-02T12:30:40;19.90;99.90
60234;DHT22;49514;43.538;-5.708;2023-04-02T12:33:40;20.30;98.10
60234;DHT22;49514;43.538;-5.708;2023-04-02T12:36:06;20.50;98.90
60234;DHT22;49514;43.538;-5.708;2023-04-02T12:38:43;20.50;96.90
60234;DHT22;49514;43.538;-5.708;2023-04-02T12:41:23;20.70;97.00
60234;DHT22;49514;43.538;-5.708;2023-04-02T12:43:58;20.90;97.20
60234;DHT22;49514;43.538;-5.708;2023-04-02T12:46:25;20.80;96.70
60234;DHT22;49514;43.538;-5.708;2023-04-02T12:48:53;21.50;96.50
60234;DHT22;49514;43.538;-5.708;2023-04-02T12:51:20;21.90;95.50
60234;DHT22;49514;43.538;-5.708;2023-04-02T12:53:48;22.80;92.10
60234;DHT22;49514;43.538;-5.708;2023-04-02T12:56:19;24.40;90.40
60234;DHT22;49514;43.538;-5.708;2023-04-02T12:58:53;26.70;86.80
60234;DHT22;49514;43.538;-5.708;2023-04-02T13:01:21;26.80;75.50
60234;DHT22;49514;43.538;-5.708;2023-04-02T13:03:59;25.80;75.80
60234;DHT22;49514;43.538;-5.708;2023-04-02T13:06:26;26.60;75.20
60234;DHT22;49514;43.538;-5.708;2023-04-02T13:08:52;24.80;76.80
60234;DHT22;49514;43.538;-5.708;2023-04-02T13:11:19;24.10;78.50
60234;DHT22;49514;43.538;-5.708;2023-04-02T13:13:48;23.50;80.90
60234;DHT22;49514;43.538;-5.708;2023-04-02T13:18:41;24.80;77.60
60234;DHT22;49514;43.538;-5.708;2023-04-02T13:23:46;23.30;79.70
60234;DHT22;49514;43.538;-5.708;2023-04-02T13:26:20;22.60;79.70
60234;DHT22;49514;43.538;-5.708;2023-04-02T13:29:00;22.00;81.90
60234;DHT22;49514;43.538;-5.708;2023-04-02T13:31:30;22.90;82.00
60234;DHT22;49514;43.538;-5.708;2023-04-02T13:33:57;22.30;80.90
60234;DHT22;49514;43.538;-5.708;2023-04-02T13:36:24;21.80;82.20
60234;DHT22;49514;43.538;-5.708;2023-04-02T13:38:51;22.10;83.90
60234;DHT22;49514;43.538;-5.708;2023-04-02T13:41:21;22.00;83.80
60234;DHT22;49514;43.538;-5.708;2023-04-02T13:43:49;21.70;83.50
60234;DHT22;49514;43.538;-5.708;2023-04-02T13:46:20;21.40;83.60
60234;DHT22;49514;43.538;-5.708;2023-04-02T13:48:48;21.10;85.20
60234;DHT22;49514;43.538;-5.708;2023-04-02T13:51:18;22.00;84.70
60234;DHT22;49514;43.538;-5.708;2023-04-02T13:53:46;21.90;84.80
60234;DHT22;49514;43.538;-5.708;2023-04-02T13:56:14;21.40;85.30
60234;DHT22;49514;43.538;-5.708;2023-04-02T13:58:40;21.30;86.10
60234;DHT22;49514;43.538;-5.708;2023-04-02T14:01:07;22.10;86.70
60234;DHT22;49514;43.538;-5.708;2023-04-02T14:03:34;24.20;80.50
60234;DHT22;49514;43.538;-5.708;2023-04-02T14:06:26;24.20;80.80
60234;DHT22;49514;43.538;-5.708;2023-04-02T14:18:19;35.50;67.50
60234;DHT22;49514;43.538;-5.708;2023-04-02T14:23:37;38.10;52.70
60234;DHT22;49514;43.538;-5.708;2023-04-02T14:26:14;38.40;51.40
60234;DHT22;49514;43.538;-5.708;2023-04-02T14:29:04;35.90;52.10
60234;DHT22;49514;43.538;-5.708;2023-04-02T14:34:38;37.10;53.00
60234;DHT22;49514;43.538;-5.708;2023-04-02T14:50:48;42.00;48.10
60234;DHT22;49514;43.538;-5.708;2023-04-02T14:53:33;42.20;47.90
60234;DHT22;49514;43.538;-5.708;2023-04-02T14:56:05;41.90;46.60
60234;DHT22;49514;43.538;-5.708;2023-04-02T14:58:37;42.40;45.70
60234;DHT22;49514;43.538;-5.708;2023-04-02T15:01:32;41.70;45.70
60234;DHT22;49514;43.538;-5.708;2023-04-02T15:04:11;41.80;45.00
60234;DHT22;49514;43.538;-5.708;2023-04-02T15:06:49;42.40;45.30
60234;DHT22;49514;43.538;-5.708;2023-04-02T15:09:41;43.10;44.80
60234;DHT22;49514;43.538;-5.708;2023-04-02T15:12:18;42.90;44.90
60234;DHT22;49514;43.538;-5.708;2023-04-02T15:14:49;43.50;46.20
60234;DHT22;49514;43.538;-5.708;2023-04-02T15:17:19;43.60;45.30
60234;DHT22;49514;43.538;-5.708;2023-04-02T15:20:07;43.30;43.80
60234;DHT22;49514;43.538;-5.708;2023-04-02T15:25:33;42.90;43.70
60234;DHT22;49514;43.538;-5.708;2023-04-02T15:30:47;42.00;44.20
60234;DHT22;49514;43.538;-5.708;2023-04-02T15:38:44;42.40;43.50
60234;DHT22;49514;43.538;-5.708;2023-04-02T15:41:13;42.70;44.00
60234;DHT22;49514;43.538;-5.708;2023-04-02T15:43:43;42.40;43.10
60234;DHT22;49514;43.538;-5.708;2023-04-02T15:46:17;42.60;43.20
60234;DHT22;49514;43.538;-5.708;2023-04-02T16:05:54;35.60;45.00
60234;DHT22;49514;43.538;-5.708;2023-04-02T16:08:39;33.60;45.90
60234;DHT22;49514;43.538;-5.708;2023-04-02T16:11:14;31.80;47.00
60234;DHT22;49514;43.538;-5.708;2023-04-02T16:13:44;30.70;47.70
60234;DHT22;49514;43.538;-5.708;2023-04-02T16:16:31;30.00;48.50
60234;DHT22;49514;43.538;-5.708;2023-04-02T16:19:21;28.80;49.90
60234;DHT22;49514;43.538;-5.708;2023-04-02T16:22:11;28.10;50.70
60234;DHT22;49514;43.538;-5.708;2023-04-02T16:24:45;27.70;51.20
60234;DHT22;49514;43.538;-5.708;2023-04-02T16:27:34;27.40;51.40
60234;DHT22;49514;43.538;-5.708;2023-04-02T16:41:24;28.50;52.10
60234;DHT22;49514;43.538;-5.708;2023-04-02T16:47:20;29.70;51.20
60234;DHT22;49514;43.538;-5.708;2023-04-02T17:08:23;33.20;48.00
60234;DHT22;49514;43.538;-5.708;2023-04-02T17:10:55;32.90;47.20
60234;DHT22;49514;43.538;-5.708;2023-04-02T17:13:45;31.50;47.80
60234;DHT22;49514;43.538;-5.708;2023-04-02T17:16:27;30.20;48.40
60234;DHT22;49514;43.538;-5.708;2023-04-02T17:19:00;29.00;49.40
60234;DHT22;49514;43.538;-5.708;2023-04-02T17:21:29;28.50;50.40
60234;DHT22;49514;43.538;-5.708;2023-04-02T17:24:01;28.30;50.70
60234;DHT22;49514;43.538;-5.708;2023-04-02T17:26:33;28.50;50.90
60234;DHT22;49514;43.538;-5.708;2023-04-02T17:29:06;29.00;50.80
60234;DHT22;49514;43.538;-5.708;2023-04-02T17:31:35;29.50;50.40
60234;DHT22;49514;43.538;-5.708;2023-04-02T17:34:21;29.70;50.20
60234;DHT22;49514;43.538;-5.708;2023-04-02T17:37:27;29.90;50.00
60234;DHT22;49514;43.538;-5.708;2023-04-02T17:43:29;29.00;49.40
60234;DHT22;49514;43.538;-5.708;2023-04-02T17:45:55;28.00;50.50
60234;DHT22;49514;43.538;-5.708;2023-04-02T17:48:47;28.00;50.90
60234;DHT22;49514;43.538;-5.708;2023-04-02T17:51:23;28.20;50.60
60234;DHT22;49514;43.538;-5.708;2023-04-02T18:19:02;23.50;54.90
60234;DHT22;49514;43.538;-5.708;2023-04-02T18:30:32;21.10;59.90
60234;DHT22;49514;43.538;-5.708;2023-04-02T18:42:00;19.90;61.70
60234;DHT22;49514;43.538;-5.708;2023-04-02T18:45:01;19.70;61.90
60234;DHT22;49514;43.538;-5.708;2023-04-02T18:52:47;19.40;63.00
60234;DHT22;49514;43.538;-5.708;2023-04-02T18:55:21;19.10;66.30
60234;DHT22;49514;43.538;-5.708;2023-04-02T18:57:58;19.00;66.30
60234;DHT22;49514;43.538;-5.708;2023-04-02T19:00:33;18.80;64.80
60234;DHT22;49514;43.538;-5.708;2023-04-02T19:06:34;18.50;65.90
60234;DHT22;49514;43.538;-5.708;2023-04-02T19:09:12;18.40;68.70
60234;DHT22;49514;43.538;-5.708;2023-04-02T19:11:40;18.30;67.60
60234;DHT22;49514;43.538;-5.708;2023-04-02T19:14:16;18.30;68.70
60234;DHT22;49514;43.538;-5.708;2023-04-02T19:17:25;18.20;68.80
60234;DHT22;49514;43.538;-5.708;2023-04-02T19:25:43;18.00;68.00
60234;DHT22;49514;43.538;-5.708;2023-04-02T19:31:09;17.80;70.30
60234;DHT22;49514;43.538;-5.708;2023-04-02T19:34:13;17.70;71.20
60234;DHT22;49514;43.538;-5.708;2023-04-02T19:36:43;17.60;69.30
60234;DHT22;49514;43.538;-5.708;2023-04-02T19:42:48;17.70;69.60
60234;DHT22;49514;43.538;-5.708;2023-04-02T19:45:30;17.60;70.20
60234;DHT22;49514;43.538;-5.708;2023-04-02T19:48:05;17.60;72.60
60234;DHT22;49514;43.538;-5.708;2023-04-02T19:50:37;17.50;70.70
60234;DHT22;49514;43.538;-5.708;2023-04-02T19:53:05;17.50;71.20
60234;DHT22;49514;43.538;-5.708;2023-04-02T19:55:32;17.50;72.70
60234;DHT22;49514;43.538;-5.708;2023-04-02T19:58:02;17.40;71.00
60234;DHT22;49514;43.538;-5.708;2023-04-02T20:00:29;17.30;73.90
60234;DHT22;49514;43.538;-5.708;2023-04-02T20:02:56;17.20;73.60
60234;DHT22;49514;43.538;-5.708;2023-04-02T20:05:24;17.10;72.90
60234;DHT22;49514;43.538;-5.708;2023-04-02T20:07:51;17.10;73.70
60234;DHT22;49514;43.538;-5.708;2023-04-02T20:10:18;17.10;74.30
60234;DHT22;49514;43.538;-5.708;2023-04-02T20:12:49;17.00;72.80
60234;DHT22;49514;43.538;-5.708;2023-04-02T20:15:16;17.00;74.50
60234;DHT22;49514;43.538;-5.708;2023-04-02T20:17:43;17.00;76.00
60234;DHT22;49514;43.538;-5.708;2023-04-02T20:20:11;16.90;75.00
60234;DHT22;49514;43.538;-5.708;2023-04-02T20:22:40;16.80;74.80
60234;DHT22;49514;43.538;-5.708;2023-04-02T20:25:07;16.70;76.20
60234;DHT22;49514;43.538;-5.708;2023-04-02T20:27:34;16.70;77.70
60234;DHT22;49514;43.538;-5.708;2023-04-02T20:30:01;16.60;75.90
60234;DHT22;49514;43.538;-5.708;2023-04-02T20:32:28;16.50;77.30
60234;DHT22;49514;43.538;-5.708;2023-04-02T20:34:56;16.50;76.80
60234;DHT22;49514;43.538;-5.708;2023-04-02T20:37:23;16.50;77.90
60234;DHT22;49514;43.538;-5.708;2023-04-02T20:40:03;16.40;76.70
60234;DHT22;49514;43.538;-5.708;2023-04-02T20:42:32;16.40;78.30
60234;DHT22;49514;43.538;-5.708;2023-04-02T20:44:59;16.30;79.40
60234;DHT22;49514;43.538;-5.708;2023-04-02T20:47:26;16.20;78.30
60234;DHT22;49514;43.538;-5.708;2023-04-02T20:49:53;16.20;79.90
60234;DHT22;49514;43.538;-5.708;2023-04-02T20:52:20;16.20;78.20
60234;DHT22;49514;43.538;-5.708;2023-04-02T20:54:47;16.20;79.80
60234;DHT22;49514;43.538;-5.708;2023-04-02T20:57:15;16.10;79.90
60234;DHT22;49514;43.538;-5.708;2023-04-02T20:59:46;16.10;78.40
60234;DHT22;49514;43.538;-5.708;2023-04-02T21:02:13;16.00;79.50
60234;DHT22;49514;43.538;-5.708;2023-04-02T21:04:41;15.90;79.80